createdAt,value
2019-02-23T00:01:23.445Z,104017.11
2019-02-23T00:03:53.781Z,104020.17
2019-02-23T00:06:29.710Z,104022.02
2019-02-23T00:08:56.111Z,104027.84
2019-02-23T00:11:26.464Z,104029.69
2019-02-23T00:13:56.833Z,104019.53
2019-02-23T00:16:27.111Z,104014.05
2019-02-23T00:18:57.387Z,104008.08
2019-02-23T00:21:27.709Z,104001.45
2019-02-23T00:23:57.979Z,104009.90
2019-02-23T00:26:28.302Z,104008.37
2019-02-23T00:28:58.597Z,104010.19
2019-02-23T00:31:28.895Z,104018.11
2019-02-23T00:33:59.157Z,104012.04
2019-02-23T00:36:29.544Z,104019.47
2019-02-23T00:38:59.969Z,104019.42
2019-02-23T00:41:30.334Z,104020.17
2019-02-23T00:44:01.489Z,104011.84
2019-02-23T00:46:31.768Z,104010.77
2019-02-23T00:49:02.041Z,104019.13
2019-02-23T00:51:36.486Z,104019.02
2019-02-23T00:54:06.780Z,104001.23
2019-02-23T00:56:37.090Z,103999.44
2019-02-23T00:59:07.358Z,103996.72
2019-02-23T01:01:37.688Z,103994.94
2019-02-23T01:04:07.974Z,103993.27
2019-02-23T01:06:38.307Z,103986.94
2019-02-23T01:09:08.600Z,103981.61
2019-02-23T01:11:39.151Z,103971.77
2019-02-23T01:14:09.463Z,103969.56
2019-02-23T01:16:39.746Z,103967.59
2019-02-23T01:19:10.009Z,103964.59
2019-02-23T01:21:40.277Z,103949.98
2019-02-23T01:24:10.642Z,103946.97
2019-02-23T01:26:40.903Z,103957.49
2019-02-23T01:29:12.140Z,103961.64
2019-02-23T01:31:44.049Z,103971.42
2019-02-23T01:34:14.439Z,103971.19
2019-02-23T01:36:44.727Z,103985.74
2019-02-23T01:39:15.007Z,103986.19
2019-02-23T01:41:45.313Z,103977.77
2019-02-23T01:44:15.678Z,103964.98
2019-02-23T01:46:45.970Z,103972.37
2019-02-23T01:49:16.319Z,103981.77
2019-02-23T01:51:46.605Z,103987.79
2019-02-23T01:54:17.069Z,103972.95
2019-02-23T01:56:47.368Z,103969.70
2019-02-23T01:59:17.679Z,103980.62
2019-02-23T02:01:51.150Z,103996.68
2019-02-23T02:04:21.421Z,103996.89
2019-02-23T02:06:51.708Z,104005.02
2019-02-23T02:09:22.478Z,104009.75
2019-02-23T02:11:52.829Z,104027.49
2019-02-23T02:14:23.132Z,104022.75
2019-02-23T02:16:54.498Z,104019.06
2019-02-23T02:19:24.749Z,104026.26
2019-02-23T02:21:55.044Z,104021.34
2019-02-23T02:24:25.335Z,104021.14
2019-02-23T02:26:55.609Z,104011.27
2019-02-23T02:29:25.919Z,103996.70
2019-02-23T02:31:56.212Z,103984.49
2019-02-23T02:34:27.530Z,103987.16
2019-02-23T02:36:57.831Z,103996.48
2019-02-23T02:39:28.119Z,103985.83
2019-02-23T02:41:58.425Z,103964.82
2019-02-23T02:44:28.707Z,103958.63
2019-02-23T02:46:59.003Z,103947.91
2019-02-23T02:49:29.276Z,103940.30
2019-02-23T02:51:59.565Z,103926.63
2019-02-23T02:54:29.871Z,103924.83
2019-02-23T02:57:00.152Z,103920.15
2019-02-23T02:59:30.426Z,103927.11
2019-02-23T03:02:00.730Z,103929.60
2019-02-23T03:04:31.170Z,103934.80
2019-02-23T03:07:01.435Z,103934.69
2019-02-23T03:09:31.719Z,103931.13
2019-02-23T03:12:01.989Z,103924.62
2019-02-23T03:14:32.283Z,103935.66
2019-02-23T03:17:02.605Z,103943.89
2019-02-23T03:19:33.951Z,103949.28
2019-02-23T03:22:04.226Z,103962.58
2019-02-23T03:24:34.527Z,103965.41
2019-02-23T03:27:04.831Z,103958.61
2019-02-23T03:29:35.124Z,103958.49
2019-02-23T03:32:05.428Z,103951.23
2019-02-23T03:34:35.695Z,103955.12
2019-02-23T03:37:05.992Z,103952.02
2019-02-23T03:39:36.329Z,103943.80
2019-02-23T03:42:06.671Z,103925.05
2019-02-23T03:44:36.948Z,103917.87
2019-02-23T03:47:07.239Z,103929.84
2019-02-23T03:49:37.637Z,103933.31
2019-02-23T03:52:08.987Z,103935.52
2019-02-23T03:54:39.284Z,103925.36
2019-02-23T03:57:09.587Z,103920.80
2019-02-23T03:59:39.887Z,103913.67
2019-02-23T04:02:10.174Z,103914.84
2019-02-23T04:04:41.013Z,103931.58
2019-02-23T04:07:11.289Z,103937.95
2019-02-23T04:09:41.645Z,103931.61
2019-02-23T04:12:12.016Z,103928.79
2019-02-23T04:14:42.313Z,103906.12
2019-02-23T04:17:12.689Z,103888.23
2019-02-23T04:19:42.964Z,103897.91
2019-02-23T04:22:13.262Z,103902.71
2019-02-23T04:24:43.540Z,103903.84
2019-02-23T04:27:13.806Z,103903.87
2019-02-23T04:29:46.935Z,103897.27
2019-02-23T04:32:16.056Z,103882.94
2019-02-23T04:34:46.339Z,103868.62
2019-02-23T04:37:16.663Z,103873.90
2019-02-23T04:39:46.956Z,103880.69
2019-02-23T04:42:18.209Z,103899.38
2019-02-23T04:44:48.488Z,103906.82
2019-02-23T04:47:18.773Z,103903.22
2019-02-23T04:49:54.515Z,103900.87
2019-02-23T04:52:24.828Z,103903.69
2019-02-23T04:54:55.138Z,103911.88
2019-02-23T04:57:25.419Z,103914.92
2019-02-23T04:59:55.677Z,103914.83
2019-02-23T05:02:25.976Z,103916.97
2019-02-23T05:04:56.247Z,103907.41
2019-02-23T05:07:26.545Z,103924.09
2019-02-23T05:09:56.821Z,103938.43
2019-02-23T05:12:27.110Z,103925.39
2019-02-23T05:14:57.442Z,103932.94
2019-02-23T05:17:27.874Z,103938.81
2019-02-23T05:19:58.458Z,103947.30
2019-02-23T05:22:28.772Z,103942.41
2019-02-23T05:24:59.431Z,103930.76
2019-02-23T05:27:29.769Z,103919.83
2019-02-23T05:30:00.039Z,103929.97
2019-02-23T05:32:30.334Z,103938.87
2019-02-23T05:35:00.707Z,103955.42
2019-02-23T05:37:30.999Z,103969.83
2019-02-23T05:40:01.307Z,103977.20
2019-02-23T05:42:32.049Z,103969.88
2019-02-23T05:45:02.335Z,103973.62
2019-02-23T05:47:32.712Z,103965.55
2019-02-23T05:50:03.237Z,103964.49
2019-02-23T05:52:33.770Z,103962.73
2019-02-23T05:55:04.536Z,103965.41
2019-02-23T05:57:34.885Z,103959.81
2019-02-23T06:00:09.096Z,103960.16
2019-02-23T06:02:39.739Z,103970.89
2019-02-23T06:05:10.107Z,103972.16
2019-02-23T06:07:40.502Z,103980.41
2019-02-23T06:10:10.801Z,103979.91
2019-02-23T06:12:41.363Z,103973.95
2019-02-23T06:15:12.611Z,103972.03
2019-02-23T06:17:42.896Z,103970.06
2019-02-23T06:20:15.202Z,103976.16
2019-02-23T06:22:46.788Z,103981.45
2019-02-23T06:25:17.477Z,103988.61
2019-02-23T06:27:47.865Z,103995.53
2019-02-23T06:30:18.484Z,103996.20
2019-02-23T06:32:48.921Z,104000.89
2019-02-23T06:35:19.312Z,104000.67
2019-02-23T06:37:49.589Z,104004.00
2019-02-23T06:40:20.068Z,103994.69
2019-02-23T06:42:50.393Z,103991.75
2019-02-23T06:45:20.690Z,103990.20
2019-02-23T06:47:51.068Z,103994.47
2019-02-23T06:50:21.362Z,103987.70
2019-02-23T06:52:51.647Z,103982.27
2019-02-23T06:55:21.996Z,103991.63
2019-02-23T06:57:52.403Z,104002.87
2019-02-23T07:00:22.722Z,104005.66
2019-02-23T07:02:53.346Z,104021.71
2019-02-23T07:05:23.637Z,104035.08
2019-02-23T07:07:54.193Z,104037.02
2019-02-23T07:10:24.571Z,104026.12
2019-02-23T07:12:55.100Z,104028.28
2019-02-23T07:15:25.674Z,104012.33
2019-02-23T07:17:56.104Z,104010.44
2019-02-23T07:20:26.408Z,104007.47
2019-02-23T07:22:56.844Z,104014.42
2019-02-23T07:25:27.149Z,104005.98
2019-02-23T07:27:57.492Z,104004.46
2019-02-23T07:30:27.827Z,104001.42
2019-02-23T07:32:58.219Z,104001.17
2019-02-23T07:35:28.677Z,103993.73
2019-02-23T07:37:59.822Z,103980.98
2019-02-23T07:40:30.195Z,103980.05
2019-02-23T07:43:00.522Z,103981.05
2019-02-23T07:45:30.947Z,103977.50
2019-02-23T07:48:01.526Z,103981.60
2019-02-23T07:50:31.950Z,103980.14
2019-02-23T07:53:02.543Z,103984.95
2019-02-23T07:55:32.807Z,103984.73
2019-02-23T07:58:03.163Z,103981.38
2019-02-23T08:00:33.524Z,103970.62
2019-02-23T08:03:03.971Z,103981.00
2019-02-23T08:05:34.256Z,103986.77
2019-02-23T08:08:04.591Z,103995.50
2019-02-23T08:10:35.070Z,104003.73
2019-02-23T08:13:06.646Z,104017.93
2019-02-23T08:15:36.940Z,104026.17
2019-02-23T08:18:07.234Z,104035.77
2019-02-23T08:20:37.513Z,104038.45
2019-02-23T08:23:07.789Z,104036.01
2019-02-23T08:25:38.445Z,104033.99
2019-02-23T08:28:08.711Z,104042.03
2019-02-23T08:30:39.125Z,104036.37
2019-02-23T08:33:09.411Z,104026.37
2019-02-23T08:35:39.688Z,104008.98
2019-02-23T08:38:09.980Z,103997.27
2019-02-23T08:40:40.313Z,103994.52
2019-02-23T08:43:10.601Z,103991.38
2019-02-23T08:45:40.932Z,103991.28
2019-02-23T08:48:11.280Z,103993.95
2019-02-23T08:50:42.747Z,103995.73
2019-02-23T08:53:13.033Z,103979.23
2019-02-23T08:55:43.338Z,103976.23
2019-02-23T08:58:14.162Z,103972.09
2019-02-23T09:00:44.436Z,103966.81
2019-02-23T09:03:14.724Z,103967.67
2019-02-23T09:05:45.020Z,103969.98
2019-02-23T09:08:15.388Z,103976.22
2019-02-23T09:10:45.709Z,103964.92
2019-02-23T09:13:15.983Z,103964.50
2019-02-23T09:15:46.306Z,103961.14
2019-02-23T09:18:16.609Z,103959.27
2019-02-23T09:20:47.375Z,103960.62
2019-02-23T09:23:17.655Z,103968.34
2019-02-23T09:25:49.595Z,103975.56
2019-02-23T09:28:19.859Z,103975.89
2019-02-23T09:30:50.152Z,103976.59
2019-02-23T09:33:20.415Z,103981.55
2019-02-23T09:35:50.748Z,103984.74
2019-02-23T09:38:21.025Z,103991.48
2019-02-23T09:40:51.313Z,103982.06
2019-02-23T09:43:21.612Z,103975.55
2019-02-23T09:45:51.888Z,103978.31
2019-02-23T09:48:23.642Z,103973.59
2019-02-23T09:50:53.940Z,103974.81
2019-02-23T09:53:24.220Z,103973.04
2019-02-23T09:55:54.541Z,103977.11
2019-02-23T09:58:24.818Z,103970.16
2019-02-23T10:00:55.430Z,103971.77
2019-02-23T10:03:25.997Z,103969.64
2019-02-23T10:05:57.058Z,103966.29
2019-02-23T10:08:27.345Z,103957.58
2019-02-23T10:10:57.771Z,103962.03
2019-02-23T10:13:28.039Z,103959.50
2019-02-23T10:16:00.933Z,103948.97
2019-02-23T10:18:31.551Z,103953.89
2019-02-23T10:21:01.901Z,103951.63
2019-02-23T10:23:32.213Z,103947.99
2019-02-23T10:26:04.130Z,103938.40
2019-02-23T10:28:35.509Z,103941.14
2019-02-23T10:31:05.867Z,103941.83
2019-02-23T10:33:38.475Z,103949.66
2019-02-23T10:36:08.140Z,103949.10
2019-02-23T10:38:39.506Z,103955.50
2019-02-23T10:41:09.787Z,103958.96
2019-02-23T10:43:40.112Z,103958.30
2019-02-23T10:46:10.441Z,103970.00
2019-02-23T10:48:40.762Z,103975.17
2019-02-23T10:51:11.059Z,103972.34
2019-02-23T10:53:41.359Z,103960.00
2019-02-23T10:56:11.608Z,103956.20
2019-02-23T10:58:41.952Z,103960.04
2019-02-23T11:01:12.423Z,103955.85
2019-02-23T11:03:43.961Z,103962.50
2019-02-23T11:06:14.215Z,103958.42
2019-02-23T11:08:44.483Z,103961.46
2019-02-23T11:11:14.823Z,103954.46
2019-02-23T11:13:45.131Z,103942.53
2019-02-23T11:16:16.382Z,103943.29
2019-02-23T11:18:46.673Z,103933.16
2019-02-23T11:21:16.969Z,103922.81
2019-02-23T11:23:47.252Z,103918.65
2019-02-23T11:26:17.672Z,103921.68
2019-02-23T11:28:47.951Z,103923.10
2019-02-23T11:31:18.243Z,103919.59
2019-02-23T11:33:48.540Z,103905.23
2019-02-23T11:36:18.804Z,103906.58
2019-02-23T11:38:49.100Z,103899.69
2019-02-23T11:41:19.417Z,103898.85
2019-02-23T11:43:49.708Z,103900.66
2019-02-23T11:46:20.085Z,103890.81
2019-02-23T11:48:50.449Z,103895.47
2019-02-23T11:51:20.733Z,103900.72
2019-02-23T11:53:54.826Z,103897.41
2019-02-23T11:56:22.994Z,103896.42
2019-02-23T11:58:53.293Z,103898.27
2019-02-23T12:01:23.701Z,103895.72
2019-02-23T12:03:53.994Z,103895.47
2019-02-23T12:06:24.273Z,103880.59
2019-02-23T12:08:57.188Z,103881.69
2019-02-23T12:11:27.715Z,103875.92
2019-02-23T12:13:59.779Z,103875.84
2019-02-23T12:16:30.071Z,103871.14
2019-02-23T12:19:00.341Z,103876.61
2019-02-23T12:21:31.369Z,103877.61
2019-02-23T12:24:05.948Z,103883.30
2019-02-23T12:26:34.770Z,103890.33
2019-02-23T12:29:05.048Z,103881.27
2019-02-23T12:31:35.324Z,103873.14
2019-02-23T12:34:05.598Z,103871.34
2019-02-23T12:36:35.913Z,103869.52
2019-02-23T12:39:06.384Z,103876.04
2019-02-23T12:41:38.753Z,103873.58
2019-02-23T12:44:09.337Z,103883.83
2019-02-23T12:46:39.614Z,103882.89
2019-02-23T12:49:09.939Z,103884.80
2019-02-23T12:51:41.244Z,103874.89
2019-02-23T12:54:16.749Z,103874.81
2019-02-23T12:56:43.505Z,103884.98
2019-02-23T12:59:14.093Z,103882.23
2019-02-23T13:01:44.505Z,103877.14
2019-02-23T13:04:14.935Z,103878.27
2019-02-23T13:06:46.277Z,103887.02
2019-02-23T13:09:19.138Z,103890.23
2019-02-23T13:12:04.530Z,103883.71
2019-02-23T13:14:53.485Z,103874.61
2019-02-23T13:17:49.614Z,103865.02
2019-02-23T13:20:31.917Z,103864.58
2019-02-23T13:23:14.532Z,103856.73
2019-02-23T13:26:04.967Z,103849.67
2019-02-23T13:28:50.635Z,103831.18
2019-02-23T13:31:43.557Z,103839.64
2019-02-23T13:34:26.122Z,103840.00
2019-02-23T13:37:05.571Z,103834.97
2019-02-23T13:39:57.444Z,103839.25
2019-02-23T13:42:52.402Z,103830.06
2019-02-23T13:45:41.067Z,103821.44
2019-02-23T13:48:26.392Z,103816.05
2019-02-23T13:51:11.954Z,103809.33
2019-02-23T13:54:08.284Z,103810.25
2019-02-23T13:56:50.965Z,103814.44
2019-02-23T13:59:36.669Z,103808.95
2019-02-23T14:02:29.827Z,103807.82
2019-02-23T14:05:12.193Z,103813.19
2019-02-23T14:08:08.512Z,103805.46
2019-02-23T14:10:50.747Z,103809.91
2019-02-23T14:13:39.377Z,103808.73
2019-02-23T14:16:30.804Z,103810.41
2019-02-23T14:19:10.478Z,103803.91
2019-02-23T14:21:52.886Z,103801.69
2019-02-23T14:24:49.678Z,103790.09
2019-02-23T14:27:39.616Z,103780.11
2019-02-23T14:30:29.480Z,103777.98
2019-02-23T14:33:27.223Z,103769.37
2019-02-23T14:36:35.743Z,103759.70
2019-02-23T14:39:35.116Z,103750.75
2019-02-23T14:42:08.920Z,103749.27
2019-02-23T14:44:49.436Z,103753.88
2019-02-23T14:47:28.495Z,103758.74
2019-02-23T14:50:04.875Z,103755.97
2019-02-23T14:52:56.751Z,103770.51
2019-02-23T14:55:39.908Z,103777.61
2019-02-23T14:58:32.623Z,103778.23
2019-02-23T15:01:24.149Z,103774.75
2019-02-23T15:04:12.583Z,103777.80
2019-02-23T15:07:06.284Z,103767.68
2019-02-23T15:10:13.711Z,103756.45
2019-02-23T15:12:53.047Z,103756.03
2019-02-23T15:15:29.340Z,103764.06
2019-02-23T15:18:12.228Z,103762.34
2019-02-23T15:20:54.764Z,103757.31
2019-02-23T15:23:34.246Z,103756.64
2019-02-23T15:26:13.693Z,103742.61
2019-02-23T15:29:11.424Z,103751.81
2019-02-23T15:32:00.164Z,103746.91
2019-02-23T15:34:43.116Z,103748.92
2019-02-23T15:37:41.027Z,103730.36
2019-02-23T15:40:20.589Z,103733.38
2019-02-23T15:43:03.260Z,103729.37
2019-02-23T15:46:11.780Z,103724.59
2019-02-23T15:48:54.280Z,103724.25
2019-02-23T15:51:24.914Z,103711.52
2019-02-23T15:53:55.343Z,103711.27
2019-02-23T15:56:27.344Z,103710.63
2019-02-23T15:58:57.635Z,103712.70
2019-02-23T16:01:29.862Z,103712.98
2019-02-23T16:04:00.617Z,103720.19
2019-02-23T16:06:31.752Z,103718.04
2019-02-23T16:09:03.267Z,103712.58
2019-02-23T16:11:34.206Z,103710.20
2019-02-23T16:14:04.551Z,103705.18
2019-02-23T16:16:34.842Z,103708.89
2019-02-23T16:19:05.188Z,103715.58
2019-02-23T16:21:35.479Z,103710.53
2019-02-23T16:24:05.872Z,103714.48
2019-02-23T16:26:36.245Z,103715.94
2019-02-23T16:29:06.988Z,103713.48
2019-02-23T16:31:37.285Z,103706.65
2019-02-23T16:34:07.728Z,103707.56
2019-02-23T16:36:37.991Z,103705.77
2019-02-23T16:39:10.131Z,103697.99
2019-02-23T16:41:40.636Z,103691.08
2019-02-23T16:44:15.153Z,103690.59
2019-02-23T16:46:46.510Z,103693.32
2019-02-23T16:49:16.949Z,103685.01
2019-02-23T16:51:47.250Z,103694.82
2019-02-23T16:54:17.554Z,103683.48
2019-02-23T16:56:48.212Z,103685.47
2019-02-23T16:59:18.521Z,103689.42
2019-02-23T17:01:48.846Z,103683.17
2019-02-23T17:04:19.151Z,103680.31
2019-02-23T17:06:49.430Z,103676.08
2019-02-23T17:09:19.744Z,103667.05
2019-02-23T17:11:50.098Z,103665.17
2019-02-23T17:14:21.165Z,103658.99
2019-02-23T17:16:51.484Z,103662.95
2019-02-23T17:19:22.788Z,103665.23
2019-02-23T17:21:53.087Z,103668.10
2019-02-23T17:24:23.406Z,103669.65
2019-02-23T17:26:53.784Z,103669.59
2019-02-23T17:29:25.658Z,103677.53
2019-02-23T17:31:55.989Z,103663.69
2019-02-23T17:34:26.370Z,103664.19
2019-02-23T17:36:56.665Z,103668.25
2019-02-23T17:39:26.963Z,103668.10
2019-02-23T17:41:57.305Z,103662.03
2019-02-23T17:44:27.607Z,103646.25
2019-02-23T17:46:57.906Z,103635.34
2019-02-23T17:49:28.203Z,103643.33
2019-02-23T17:51:58.583Z,103640.92
2019-02-23T17:54:28.871Z,103639.20
2019-02-23T17:56:59.191Z,103650.11
2019-02-23T17:59:30.476Z,103639.84
2019-02-23T18:02:00.834Z,103640.69
2019-02-23T18:04:32.221Z,103640.80
2019-02-23T18:07:02.494Z,103628.69
2019-02-23T18:09:33.747Z,103631.27
2019-02-23T18:12:04.067Z,103625.69
2019-02-23T18:14:34.465Z,103619.34
2019-02-23T18:17:04.818Z,103627.24
2019-02-23T18:19:35.099Z,103627.30
2019-02-23T18:22:05.411Z,103617.80
2019-02-23T18:24:36.767Z,103622.34
2019-02-23T18:27:08.490Z,103619.23
2019-02-23T18:29:38.926Z,103624.17
2019-02-23T18:32:09.216Z,103618.86
2019-02-23T18:34:39.579Z,103618.08
2019-02-23T18:37:09.924Z,103614.27
2019-02-23T18:39:40.217Z,103611.91
2019-02-23T18:42:11.698Z,103613.51
2019-02-23T18:44:42.270Z,103619.58
2019-02-23T18:47:12.622Z,103622.91
2019-02-23T18:49:43.025Z,103617.78
2019-02-23T18:52:13.356Z,103621.80
2019-02-23T18:54:43.697Z,103620.47
2019-02-23T18:57:14.048Z,103613.30
2019-02-23T18:59:44.398Z,103615.95
2019-02-23T19:02:14.926Z,103612.78
2019-02-23T19:04:45.281Z,103603.75
2019-02-23T19:07:15.595Z,103602.69
2019-02-23T19:09:45.882Z,103603.29
2019-02-23T19:12:18.034Z,103594.30
2019-02-23T19:14:48.294Z,103590.66
2019-02-23T19:17:18.609Z,103592.00
2019-02-23T19:19:48.922Z,103580.72
2019-02-23T19:22:22.230Z,103582.58
2019-02-23T19:24:52.590Z,103582.23
2019-02-23T19:27:23.056Z,103579.34
2019-02-23T19:29:53.328Z,103567.52
2019-02-23T19:32:23.616Z,103562.27
2019-02-23T19:34:53.963Z,103566.82
2019-02-23T19:37:26.998Z,103565.41
2019-02-23T19:39:57.290Z,103554.12
2019-02-23T19:42:28.481Z,103547.63
2019-02-23T19:44:58.753Z,103551.13
2019-02-23T19:47:29.520Z,103552.03
2019-02-23T19:50:01.149Z,103541.09
2019-02-23T19:52:31.953Z,103537.09
2019-02-23T19:55:03.471Z,103537.94
2019-02-23T19:57:35.106Z,103538.43
2019-02-23T20:00:08.060Z,103533.59
2019-02-23T20:02:38.743Z,103539.31
2019-02-23T20:05:10.309Z,103530.88
2019-02-23T20:07:40.619Z,103528.03
2019-02-23T20:10:11.215Z,103526.05
2019-02-23T20:12:42.212Z,103514.37
2019-02-23T20:15:13.120Z,103530.39
2019-02-23T20:17:43.844Z,103528.26
2019-02-23T20:20:14.450Z,103532.36
2019-02-23T20:22:45.496Z,103534.65
2019-02-23T20:25:16.231Z,103540.86
2019-02-23T20:27:47.357Z,103538.64
2019-02-23T20:30:17.979Z,103546.55
2019-02-23T20:32:48.699Z,103549.15
2019-02-23T20:35:20.497Z,103549.63
2019-02-23T20:37:51.883Z,103548.86
2019-02-23T20:40:22.822Z,103547.65
2019-02-23T20:42:54.799Z,103539.56
2019-02-23T20:45:25.564Z,103545.31
2019-02-23T20:47:56.052Z,103548.34
2019-02-23T20:50:29.187Z,103535.86
2019-02-23T20:53:00.097Z,103528.38
2019-02-23T20:55:30.952Z,103520.03
2019-02-23T20:58:01.396Z,103522.59
2019-02-23T21:00:33.401Z,103516.20
2019-02-23T21:03:04.090Z,103521.18
2019-02-23T21:05:36.448Z,103525.13
2019-02-23T21:08:10.629Z,103518.61
2019-02-23T21:10:41.254Z,103523.98
2019-02-23T21:13:12.680Z,103518.37
2019-02-23T21:15:44.011Z,103520.72
2019-02-23T21:18:14.621Z,103509.71
2019-02-23T21:20:45.647Z,103502.62
2019-02-23T21:23:16.903Z,103509.71
2019-02-23T21:25:47.259Z,103512.20
2019-02-23T21:28:17.845Z,103504.89
2019-02-23T21:30:48.106Z,103504.69
2019-02-23T21:33:18.399Z,103506.65
2019-02-23T21:35:48.906Z,103512.47
2019-02-23T21:38:22.193Z,103504.34
2019-02-23T21:40:52.489Z,103511.31
2019-02-23T21:43:22.957Z,103512.58
2019-02-23T21:45:54.562Z,103505.74
2019-02-23T21:48:24.874Z,103497.52
2019-02-23T21:50:55.695Z,103496.81
2019-02-23T21:53:27.404Z,103495.84
2019-02-23T21:55:57.690Z,103493.80
2019-02-23T21:58:28.080Z,103491.97
2019-02-23T22:00:59.911Z,103500.00
2019-02-23T22:03:30.573Z,103494.22
2019-02-23T22:06:00.959Z,103493.38
2019-02-23T22:08:31.280Z,103487.59
2019-02-23T22:11:01.656Z,103479.63
2019-02-23T22:13:33.501Z,103481.30
2019-02-23T22:16:04.407Z,103479.20
2019-02-23T22:18:35.407Z,103473.59
2019-02-23T22:21:05.694Z,103477.86
2019-02-23T22:23:36.962Z,103476.72
2019-02-23T22:26:07.274Z,103492.05
2019-02-23T22:28:38.228Z,103486.58
2019-02-23T22:31:08.773Z,103478.49
2019-02-23T22:33:41.349Z,103480.00
2019-02-23T22:36:12.289Z,103474.70
2019-02-23T22:38:44.293Z,103481.47
2019-02-23T22:41:14.751Z,103473.53
2019-02-23T22:43:45.060Z,103472.58
2019-02-23T22:46:15.345Z,103474.25
2019-02-23T22:48:45.642Z,103474.59
2019-02-23T22:51:15.929Z,103472.70
2019-02-23T22:53:46.244Z,103472.48
2019-02-23T22:56:16.528Z,103466.95
2019-02-23T22:58:48.458Z,103479.83
2019-02-23T23:01:18.760Z,103470.10
2019-02-23T23:03:50.682Z,103473.38
2019-02-23T23:06:20.959Z,103478.33
2019-02-23T23:08:51.255Z,103471.66
2019-02-23T23:11:21.555Z,103465.08
2019-02-23T23:13:51.861Z,103468.05
2019-02-23T23:16:23.764Z,103458.11
2019-02-23T23:18:54.042Z,103447.92
2019-02-23T23:21:24.338Z,103453.88
2019-02-23T23:23:54.658Z,103466.54
2019-02-23T23:26:24.948Z,103450.39
2019-02-23T23:28:55.306Z,103461.24
2019-02-23T23:31:25.609Z,103446.15
2019-02-23T23:33:55.904Z,103444.02
2019-02-23T23:36:26.229Z,103441.26
2019-02-23T23:38:56.510Z,103442.52
2019-02-23T23:41:26.785Z,103446.97
2019-02-23T23:43:57.077Z,103442.86
2019-02-23T23:46:27.332Z,103448.85
2019-02-23T23:48:57.626Z,103452.41
2019-02-23T23:51:27.896Z,103447.05
2019-02-23T23:53:58.195Z,103445.91
2019-02-23T23:56:28.525Z,103452.17
2019-02-23T23:58:58.821Z,103443.53
